Time;durP1;ratioP1;P1;durP2;ratioP2;P2;SDS_P1;SDS_P2;PMS_P1;PMS_P2;Temp;Humidity;BMP_temperature;BMP_pressure;BME280_temperature;BME280_humidity;BME280_pressure;Samples;Min_cycle;Max_cycle;Signal;HPM_P1;HPM_P2
2022/03/30 08:01:20;;;;;;;46.10;18.87;;;10.90;99.90;;;;;;4520092;23;20545;-94
2022/03/30 08:04:40;;;;;;;45.83;20.77;;;10.80;99.90;;;;;;4042678;29;20193;-95
2022/03/30 08:18:11;;;;;;;46.97;19.30;;;11.00;99.90;;;;;;4059009;29;20217;-94
2022/03/30 08:23:25;;;;;;;36.83;17.80;;;10.80;99.90;;;;;;4060878;29;20181;-94
2022/03/30 09:09:24;;;;;;;;;;;;;;;;;;;;;
2022/03/30 09:11:57;;;;;;;38.37;17.30;;;11.80;99.90;;;;;;3972401;29;20199;-95
2022/03/30 19:17:18;;;;;;;29.27;16.30;;;11.50;99.90;;;;;;4052397;29;20717;-87
2022/03/30 19:19:18;;;;;;;35.23;16.33;;;11.30;99.90;;;;;;4038130;29;20272;-87
2022/03/30 19:21:19;;;;;;;33.03;16.73;;;11.30;99.90;;;;;;4069290;29;20180;-86
2022/03/30 19:23:20;;;;;;;30.23;17.67;;;11.40;99.90;;;;;;4022306;29;20181;-86
2022/03/30 19:25:24;;;;;;;30.00;16.50;;;11.40;99.90;;;;;;4052755;29;20200;-87
2022/03/30 19:27:25;;;;;;;35.67;17.13;;;11.50;99.90;;;;;;4037001;29;20214;-87
2022/03/30 19:29:25;;;;;;;33.23;17.70;;;11.50;99.90;;;;;;4052541;29;20268;-87
2022/03/30 19:31:27;;;;;;;35.80;17.73;;;11.50;99.90;;;;;;4037387;29;20192;-87
2022/03/30 19:33:28;;;;;;;34.67;17.10;;;11.50;99.90;;;;;;4037250;29;20173;-87
2022/03/30 19:35:31;;;;;;;31.03;17.63;;;11.30;99.90;;;;;;4052581;29;20180;-87
2022/03/30 19:37:32;;;;;;;28.53;17.67;;;11.20;99.90;;;;;;4037033;29;20209;-86
2022/03/30 19:39:34;;;;;;;37.13;18.50;;;11.10;99.90;;;;;;4052421;29;20270;-87
2022/03/30 19:41:35;;;;;;;29.67;17.17;;;10.90;99.90;;;;;;4052617;29;20279;-87
2022/03/30 19:43:35;;;;;;;34.03;17.70;;;10.80;99.90;;;;;;4039526;29;20675;-87
2022/03/30 19:45:37;;;;;;;29.87;18.00;;;10.90;99.90;;;;;;4055800;29;20215;-86
2022/03/30 19:47:39;;;;;;;34.00;18.40;;;10.90;99.90;;;;;;4040053;29;20224;-87
2022/03/30 19:49:40;;;;;;;32.50;17.53;;;10.90;99.90;;;;;;4040220;29;20273;-87
2022/03/30 19:51:42;;;;;;;37.63;18.53;;;10.90;99.90;;;;;;4055791;29;20547;-86
2022/03/30 19:53:43;;;;;;;35.63;18.17;;;11.00;99.90;;;;;;4040007;29;20174;-87
2022/03/30 19:55:45;;;;;;;33.33;17.70;;;11.00;99.90;;;;;;4039642;29;20702;-86
2022/03/30 19:57:47;;;;;;;37.10;19.27;;;11.10;99.90;;;;;;4055376;29;20169;-87
2022/03/30 19:59:48;;;;;;;30.87;17.80;;;11.10;99.90;;;;;;4055416;29;20184;-87
2022/03/30 20:01:48;;;;;;;34.93;18.40;;;11.10;99.90;;;;;;4039970;29;20184;-87
2022/03/30 20:03:49;;;;;;;38.50;17.90;;;11.20;99.90;;;;;;4039942;29;20186;-87
2022/03/30 20:05:50;;;;;;;33.60;17.80;;;11.20;99.90;;;;;;4040696;29;20614;-87
2022/03/30 20:07:51;;;;;;;31.67;18.00;;;11.30;99.90;;;;;;4054940;29;20252;-87
2022/03/30 20:09:52;;;;;;;34.07;18.27;;;11.40;99.90;;;;;;4039668;29;20221;-87
2022/03/30 20:11:52;;;;;;;38.20;17.63;;;11.50;99.90;;;;;;4039491;29;20178;-87
2022/03/30 20:13:53;;;;;;;32.27;17.23;;;11.60;99.90;;;;;;4039670;29;20177;-86
2022/03/30 20:15:54;;;;;;;34.13;18.10;;;11.70;99.90;;;;;;4039493;29;20245;-87
2022/03/30 20:17:55;;;;;;;31.43;18.53;;;11.80;99.90;;;;;;4055098;29;20321;-87
2022/03/30 20:19:56;;;;;;;38.33;19.43;;;11.80;99.90;;;;;;4039611;29;20177;-87
2022/03/30 20:21:56;;;;;;;33.13;19.87;;;11.80;99.90;;;;;;4039459;29;20181;-87
2022/03/30 20:23:57;;;;;;;30.73;19.03;;;11.90;99.90;;;;;;4054892;29;20185;-87
2022/03/30 20:25:58;;;;;;;34.50;18.90;;;11.90;99.90;;;;;;4039260;29;20220;-88
2022/03/30 20:27:59;;;;;;;38.03;18.97;;;11.90;99.90;;;;;;4039070;29;20217;-88
2022/03/30 20:30:00;;;;;;;33.27;18.90;;;11.90;99.90;;;;;;4039451;29;20542;-87
2022/03/30 20:32:00;;;;;;;35.80;18.63;;;11.90;99.90;;;;;;4070386;29;20279;-87
2022/03/30 20:34:01;;;;;;;33.40;18.90;;;11.80;99.90;;;;;;4039157;29;20222;-87
2022/03/30 20:36:02;;;;;;;30.33;18.73;;;11.90;99.90;;;;;;4039329;29;20237;-87
2022/03/30 20:38:04;;;;;;;38.40;19.83;;;11.60;99.90;;;;;;4039317;29;20178;-88
2022/03/30 20:40:05;;;;;;;32.80;18.43;;;11.30;99.90;;;;;;4040534;29;20181;-87
2022/03/30 20:42:06;;;;;;;35.72;18.13;;;10.90;99.90;;;;;;4059332;29;20206;-88
2022/03/30 20:44:07;;;;;;;34.00;18.87;;;10.80;99.90;;;;;;4059583;29;20185;-87
2022/03/30 20:46:07;;;;;;;32.90;18.53;;;10.70;99.90;;;;;;4064683;29;20209;-87
2022/03/30 20:48:09;;;;;;;36.83;20.38;;;10.60;99.90;;;;;;4039267;29;20242;-88
2022/03/30 20:50:10;;;;;;;35.25;20.35;;;10.30;99.90;;;;;;4039193;29;20189;-88
2022/03/30 20:52:15;;;;;;;34.90;19.85;;;10.40;99.90;;;;;;4054425;29;20181;-88
2022/03/30 20:54:16;;;;;;;35.05;19.27;;;10.40;99.90;;;;;;4038185;29;20178;-88
2022/03/30 20:56:18;;;;;;;33.08;18.73;;;10.60;99.90;;;;;;4054888;29;20259;-88
2022/03/30 20:58:20;;;;;;;32.03;19.23;;;10.70;99.90;;;;;;4039121;29;20170;-87
2022/03/30 21:00:21;;;;;;;36.47;19.60;;;10.70;99.90;;;;;;4054364;29;20591;-88
2022/03/30 21:02:22;;;;;;;40.80;20.27;;;10.80;99.90;;;;;;4069726;29;20173;-88
2022/03/30 21:04:23;;;;;;;35.60;19.58;;;10.80;99.90;;;;;;4038811;29;20241;-89
2022/03/30 21:06:23;;;;;;;35.50;20.17;;;10.90;99.90;;;;;;4054570;29;20297;-88
2022/03/30 21:08:25;;;;;;;36.50;19.50;;;11.00;99.90;;;;;;4054551;29;20220;-88
2022/03/30 21:10:27;;;;;;;34.33;19.85;;;11.00;99.90;;;;;;4055112;29;20212;-88
2022/03/30 21:12:28;;;;;;;35.22;21.15;;;11.00;99.90;;;;;;4039127;29;20314;-89
2022/03/30 21:14:29;;;;;;;34.72;19.55;;;11.00;99.90;;;;;;4039521;29;20173;-88
2022/03/30 21:16:30;;;;;;;33.53;21.13;;;11.00;99.90;;;;;;4054209;29;20554;-88
2022/03/30 21:18:31;;;;;;;34.97;21.10;;;11.00;99.90;;;;;;4038691;29;20181;-88
2022/03/30 21:20:32;;;;;;;34.78;19.63;;;11.00;99.90;;;;;;4054966;29;20181;-88
2022/03/30 21:22:33;;;;;;;31.05;20.27;;;11.00;99.90;;;;;;4039944;29;20173;-88
2022/03/30 21:24:34;;;;;;;40.83;19.77;;;11.00;99.90;;;;;;4040180;29;20189;-88
2022/03/30 21:26:35;;;;;;;37.47;20.65;;;11.10;99.90;;;;;;4039275;29;20237;-88
2022/03/30 21:28:36;;;;;;;33.50;19.30;;;11.10;99.90;;;;;;4054111;29;20209;-88
2022/03/30 21:30:37;;;;;;;33.33;19.58;;;11.00;99.90;;;;;;4053897;29;20190;-88
2022/03/30 21:32:38;;;;;;;34.67;20.63;;;11.00;99.90;;;;;;4069943;29;20237;-88
2022/03/30 21:34:40;;;;;;;33.10;20.02;;;10.90;99.90;;;;;;4054221;29;20208;-88
2022/03/30 21:36:41;;;;;;;33.70;19.73;;;10.80;99.90;;;;;;4038573;29;20643;-89
2022/03/30 21:38:42;;;;;;;35.35;19.95;;;10.70;99.90;;;;;;4054087;29;20180;-88
2022/03/30 21:40:43;;;;;;;39.05;20.40;;;10.70;99.90;;;;;;4054030;29;20176;-88
2022/03/30 21:42:45;;;;;;;32.38;20.38;;;10.70;99.90;;;;;;4053605;29;20180;-88
2022/03/30 21:44:47;;;;;;;40.42;21.00;;;10.70;99.90;;;;;;4038404;29;20259;-88
2022/03/30 21:46:47;;;;;;;39.00;19.00;;;10.70;99.90;;;;;;4053594;29;20594;-89
2022/03/30 21:48:48;;;;;;;35.95;19.80;;;10.70;99.90;;;;;;4053781;29;20177;-89
2022/03/30 21:50:49;;;;;;;34.65;19.33;;;10.70;99.90;;;;;;4069396;29;20180;-88
2022/03/30 21:52:50;;;;;;;34.15;20.55;;;10.80;99.90;;;;;;4053888;29;20165;-88
2022/03/30 21:54:51;;;;;;;34.88;21.30;;;10.80;99.90;;;;;;4053745;29;20540;-88
2022/03/30 21:56:53;;;;;;;41.42;21.08;;;10.90;99.90;;;;;;4053341;29;20232;-88
2022/03/30 21:58:54;;;;;;;37.85;21.35;;;10.90;99.90;;;;;;4054591;29;20177;-88
2022/03/30 22:00:54;;;;;;;37.70;22.58;;;10.90;99.90;;;;;;4037684;29;20273;-88
2022/03/30 22:02:55;;;;;;;35.83;21.52;;;10.90;99.90;;;;;;4054430;29;20177;-88
2022/03/30 22:04:56;;;;;;;37.75;22.15;;;10.80;99.90;;;;;;4038027;29;20538;-88
2022/03/30 22:06:56;;;;;;;34.22;20.52;;;10.80;99.90;;;;;;4068942;29;20212;-89
2022/03/30 22:08:57;;;;;;;35.35;20.33;;;10.80;99.90;;;;;;4037917;29;20193;-87
2022/03/30 22:10:58;;;;;;;38.00;20.30;;;10.50;99.90;;;;;;4053055;29;20181;-88
2022/03/30 22:13:00;;;;;;;34.70;19.25;;;10.50;99.90;;;;;;4037433;29;20184;-88
2022/03/30 22:15:01;;;;;;;34.88;20.15;;;10.30;99.90;;;;;;4037741;29;20173;-88
2022/03/30 22:17:03;;;;;;;35.03;20.45;;;10.10;99.90;;;;;;4053099;29;20255;-87
2022/03/30 22:19:04;;;;;;;35.75;19.75;;;9.90;99.90;;;;;;4037624;29;20182;-88
2022/03/30 22:21:04;;;;;;;38.57;21.57;;;9.90;99.90;;;;;;4052991;29;20193;-88
2022/03/30 22:23:06;;;;;;;36.25;20.90;;;9.80;99.90;;;;;;4053235;29;20184;-88
2022/03/30 22:25:07;;;;;;;38.50;22.17;;;9.70;99.90;;;;;;4037828;29;20177;-88
2022/03/30 22:27:08;;;;;;;37.70;21.75;;;9.80;99.90;;;;;;4037611;29;20203;-88
2022/03/30 22:29:09;;;;;;;38.95;22.60;;;9.70;99.90;;;;;;4053347;29;20269;-88
2022/03/30 22:35:48;;;;;;;38.00;21.65;;;10.00;99.90;;;;;;4053206;29;20176;-87
2022/03/30 22:37:48;;;;;;;34.73;21.90;;;9.90;99.90;;;;;;4037862;29;20222;-89
2022/03/30 22:39:49;;;;;;;36.03;22.48;;;10.00;99.90;;;;;;4052924;29;20184;-88
2022/03/30 22:41:50;;;;;;;38.90;22.58;;;10.10;99.90;;;;;;4037345;29;20177;-88
2022/03/30 22:43:51;;;;;;;39.95;22.25;;;10.20;99.90;;;;;;4052845;29;20386;-88
2022/03/30 22:45:53;;;;;;;40.42;21.73;;;10.30;99.90;;;;;;4037503;29;20288;-88
2022/03/30 22:47:54;;;;;;;40.97;22.27;;;10.40;99.90;;;;;;4037355;29;20221;-88
2022/03/30 22:49:55;;;;;;;37.90;22.60;;;10.50;99.90;;;;;;4037530;29;20181;-88
2022/03/30 22:51:55;;;;;;;44.22;23.23;;;10.50;99.90;;;;;;4037260;29;20178;-88
2022/03/30 22:53:56;;;;;;;40.22;23.15;;;10.50;99.90;;;;;;4052794;29;20248;-88
2022/03/30 22:55:57;;;;;;;39.42;23.35;;;10.50;99.90;;;;;;4052873;29;20181;-88
2022/03/30 22:57:58;;;;;;;39.92;22.88;;;10.50;99.90;;;;;;4052897;29;20185;-88
2022/03/30 22:59:59;;;;;;;41.50;23.58;;;10.40;99.90;;;;;;4037514;29;20264;-88
2022/03/30 23:02:00;;;;;;;40.55;21.98;;;10.30;99.90;;;;;;4037374;29;20189;-88
2022/03/30 23:04:01;;;;;;;40.15;23.17;;;10.40;99.90;;;;;;4068266;29;20199;-88
2022/03/30 23:08:21;;;;;;;36.75;22.30;;;10.40;99.90;;;;;;4052532;29;20251;-88
2022/03/30 23:10:21;;;;;;;37.97;22.48;;;10.40;99.90;;;;;;4037350;29;20208;-88
2022/03/30 23:12:22;;;;;;;35.80;21.75;;;10.50;99.90;;;;;;4052660;29;20187;-89
2022/03/30 23:14:23;;;;;;;41.70;23.80;;;10.40;99.90;;;;;;4037296;29;20629;-88
2022/03/30 23:16:25;;;;;;;41.35;24.77;;;10.30;99.90;;;;;;4037200;29;20368;-88
2022/03/30 23:18:26;;;;;;;47.33;24.73;;;10.40;99.90;;;;;;4039846;29;20174;-88
2022/03/30 23:20:26;;;;;;;47.10;25.02;;;10.30;99.90;;;;;;4056054;29;20264;-89
2022/03/30 23:22:27;;;;;;;44.38;24.73;;;10.30;99.90;;;;;;4055949;29;20184;-88
2022/03/30 23:24:28;;;;;;;41.83;25.23;;;10.30;99.90;;;;;;4056932;29;20591;-88
2022/03/30 23:26:29;;;;;;;40.30;23.88;;;10.40;99.90;;;;;;4040014;29;20216;-88
2022/03/30 23:28:29;;;;;;;42.63;24.13;;;10.30;99.90;;;;;;4056647;29;20208;-88
2022/03/30 23:30:32;;;;;;;36.37;22.53;;;10.40;99.90;;;;;;4040326;29;20679;-88
2022/03/30 23:32:33;;;;;;;39.92;22.60;;;10.30;99.90;;;;;;4056987;29;20216;-88
2022/03/30 23:34:35;;;;;;;37.38;22.25;;;9.90;99.90;;;;;;4055625;29;20173;-88
2022/03/30 23:36:36;;;;;;;39.13;21.30;;;9.60;99.90;;;;;;4055531;29;20223;-88
2022/03/30 23:38:37;;;;;;;41.37;22.93;;;9.30;99.90;;;;;;4055426;29;20259;-87
2022/03/30 23:40:39;;;;;;;42.73;22.73;;;9.10;99.90;;;;;;4055483;29;20597;-88
2022/03/30 23:42:40;;;;;;;45.63;23.17;;;9.10;99.90;;;;;;4055471;29;20176;-87
2022/03/30 23:44:41;;;;;;;40.00;22.30;;;9.00;99.90;;;;;;4039849;29;20689;-88
2022/03/30 23:46:42;;;;;;;41.77;23.83;;;8.80;99.90;;;;;;4055408;29;20193;-88
2022/03/30 23:48:43;;;;;;;40.20;22.50;;;8.80;99.90;;;;;;4039736;29;20213;-88
2022/03/30 23:50:43;;;;;;;41.67;23.77;;;8.80;99.90;;;;;;4039781;29;20217;-88
2022/03/30 23:52:44;;;;;;;42.93;23.00;;;8.70;99.90;;;;;;4070786;29;20180;-87
2022/03/30 23:54:45;;;;;;;42.37;22.53;;;8.80;99.90;;;;;;4039743;29;20197;-87
2022/03/30 23:56:46;;;;;;;43.33;24.63;;;8.70;99.90;;;;;;4039822;29;20414;-87
2022/03/30 23:58:47;;;;;;;42.50;23.37;;;8.80;99.90;;;;;;4039933;29;20196;-88
